Impacts METAR Board
IDs:

KRWV - Caldwell Muni, TX, US

Updated at: 1300 UTC 20 Oct 2021
Potential Impact None Slight Moderate High
Time 20/01Z 20/02Z 20/03Z 20/04Z 20/05Z 20/06Z 20/07Z 20/08Z 20/09Z 20/10Z 20/11Z 20/12Z 20/13Z
Temp71 70 71 70 69 67 67 65 63 62 60 60 60
Dewpt61 61 65 66 66 65 65 64 62 62 60 59 60
Altim30.02 30.04 30.06 30.06 30.07 30.08 30.07 30.07 30.07 30.07 30.08 30.09 30.10
VIS10 10 10 10 10 10 10 10 2 0.75 10 7 0.25
CIG-- -- -- -- -- -- -- -- -- 9 -- 9 8
CoverCLRCLRCLRCLRCLRCLRCLRCLRSCTBKNSCTBKNOVC
FltCatVFRVFRVFRVFRVFRVFRVFRVFRIFRLIFRVFRIFRLIFR
WX----------------BRBR----FG
WDir1201201401401501601600000010
WSpd3 4 7 9 7 4 4 0 0 0 0 0 3
WGst-- -- -- -- -- -- -- -- -- -- -- -- --
Raw hourly METARs
KRWV 200055Z AUTO 12003KT 10SM CLR 22/16 A3002 RMK AO2 T02190161
KRWV 200155Z AUTO 12004KT 10SM CLR 21/16 A3004 RMK AO2 T02130163
KRWV 200255Z AUTO 14007KT 10SM CLR 21/18 A3006 RMK AO2 T02150182
KRWV 200355Z AUTO 14009KT 10SM CLR 21/19 A3006 RMK AO2 T02120191
KRWV 200455Z AUTO 15007KT 10SM CLR 20/19 A3007 RMK AO2 T02050189
KRWV 200555Z AUTO 16004KT 10SM CLR 20/18 A3008 RMK AO2 LTG DSNT E T01950184 10235 20195
KRWV 200655Z AUTO 16004KT 10SM CLR 19/18 A3007 RMK AO2 T01920183
KRWV 200755Z AUTO 00000KT 10SM CLR 19/18 A3007 RMK AO2 T01850179
KRWV 200855Z AUTO 00000KT 2SM BR SCT008 17/17 A3007 RMK AO2 VIS 1/2V5 T01730169
KRWV 200955Z AUTO 00000KT 3/4SM BR BKN009 17/16 A3007 RMK AO2 VIS 1/4V5 T01680165
KRWV 201055Z AUTO 00000KT 10SM SCT009 16/15 A3008 RMK AO2 T01580155
KRWV 201155Z AUTO 00000KT 7SM BKN009 15/15 A3009 RMK AO2 T01540150 10195 20154
KRWV 201255Z AUTO 01003KT 1/4SM FG OVC008 16/16 A3010 RMK AO2 T01580155